createdAt,value
2023-05-10T00:00:00.000Z,16.08
2023-05-10T00:15:00.000Z,15.79
2023-05-10T00:30:00.000Z,15.59
2023-05-10T00:45:00.000Z,15.53
2023-05-10T01:00:00.000Z,15.43
2023-05-10T01:15:00.000Z,15.52
2023-05-10T01:30:00.000Z,15.53
2023-05-10T01:45:00.000Z,15.27
2023-05-10T02:00:00.000Z,15.15
2023-05-10T02:15:00.000Z,15
2023-05-10T02:30:00.000Z,14.74
2023-05-10T02:45:00.000Z,14.65
2023-05-10T03:00:00.000Z,14.64
2023-05-10T03:15:00.000Z,14.66
2023-05-10T03:30:00.000Z,14.61
2023-05-10T03:45:00.000Z,14.68
2023-05-10T04:00:00.000Z,14.69
2023-05-10T04:15:00.000Z,14.63
2023-05-10T04:30:00.000Z,14.63
2023-05-10T04:45:00.000Z,14.55
2023-05-10T05:00:00.000Z,14.58
2023-05-10T05:15:00.000Z,14.63
2023-05-10T05:30:00.000Z,14.61
2023-05-10T05:45:00.000Z,14.73
2023-05-10T06:00:00.000Z,14.79
2023-05-10T06:15:00.000Z,14.72
2023-05-10T06:30:00.000Z,14.59
2023-05-10T06:45:00.000Z,14.64
2023-05-10T07:00:00.000Z,14.69
2023-05-10T07:15:00.000Z,14.65
2023-05-10T07:30:00.000Z,14.37
2023-05-10T07:45:00.000Z,14.23
2023-05-10T08:00:00.000Z,14.18
2023-05-10T08:15:00.000Z,13.99
2023-05-10T08:30:00.000Z,14.27
2023-05-10T08:45:00.000Z,14.76
2023-05-10T09:00:00.000Z,15.02
2023-05-10T09:15:00.000Z,15.37
2023-05-10T09:30:00.000Z,15.77
2023-05-10T09:45:00.000Z,16.41
2023-05-10T10:00:00.000Z,16.92
2023-05-10T10:15:00.000Z,16.62
2023-05-10T10:30:00.000Z,16.56
2023-05-10T10:45:00.000Z,16.41
2023-05-10T11:00:00.000Z,16.57
2023-05-10T11:15:00.000Z,17.48
2023-05-10T11:30:00.000Z,18.61
2023-05-10T11:45:00.000Z,18.93
2023-05-10T12:00:00.000Z,18.65
2023-05-10T12:15:00.000Z,18.83
2023-05-10T12:30:00.000Z,18.74
2023-05-10T12:45:00.000Z,18.91
2023-05-10T13:00:00.000Z,18.57
2023-05-10T13:15:00.000Z,18.4
2023-05-10T13:30:00.000Z,18.2
2023-05-10T13:45:00.000Z,18.18
2023-05-10T14:00:00.000Z,16.99
2023-05-10T14:15:00.000Z,15.02
2023-05-10T14:30:00.000Z,14.42
2023-05-10T14:45:00.000Z,14.42
2023-05-10T15:00:00.000Z,14.37
2023-05-10T15:15:00.000Z,14.5
2023-05-10T15:30:00.000Z,14.67
2023-05-10T15:45:00.000Z,14.84
2023-05-10T16:00:00.000Z,15.17
2023-05-10T16:15:00.000Z,15.23
2023-05-10T16:30:00.000Z,15.16
2023-05-10T16:45:00.000Z,14.81
2023-05-10T17:00:00.000Z,14.66
2023-05-10T17:15:00.000Z,14.6
2023-05-10T17:30:00.000Z,14.55
2023-05-10T17:45:00.000Z,14.11
2023-05-10T18:00:00.000Z,13.93
2023-05-10T18:15:00.000Z,13.72
2023-05-10T18:30:00.000Z,13.43
2023-05-10T18:45:00.000Z,13.24
2023-05-10T19:00:00.000Z,13.01
2023-05-10T19:15:00.000Z,12.89
2023-05-10T19:30:00.000Z,12.71
2023-05-10T19:45:00.000Z,12.46
2023-05-10T20:00:00.000Z,12.36
2023-05-10T20:15:00.000Z,12.26
2023-05-10T20:30:00.000Z,12.11
2023-05-10T20:45:00.000Z,11.95
2023-05-10T21:00:00.000Z,11.91
2023-05-10T21:15:00.000Z,11.87
2023-05-10T21:30:00.000Z,11.82
2023-05-10T21:45:00.000Z,11.74
2023-05-10T22:15:00.000Z,11.73
2023-05-10T22:30:00.000Z,11.59
2023-05-10T22:45:00.000Z,11.42
2023-05-10T23:00:00.000Z,11.37
2023-05-10T23:15:00.000Z,11.35
2023-05-10T23:30:00.000Z,11.32
2023-05-10T23:45:00.000Z,11.11
